• Join FlightAware (Why Join?)
  • Login
  • US Flag 
09:23PM EST


 

Airport Tracker/Info


-or-


 

Live Flight TrackerFlight Track Log ✈ CTL16 ✈ 06-May-2013 ✈ KHAO - KBKL

Flight Track Log - Related Links

Times and Time Zones

All times are in EDT time to prevent confusion due to time zone crossing. See the CTL16 flight status page for this flight to view local times or setup timezone preferences in your user account.

Time Position Orientation Groundspeed Altitude Reporting Facility
EDT Latitude Longitude Course Direction KTS MPH feet Rate Location/Type
08:34PM 39.3833 -84.4833 50° Northeast 133 153 1,500  Level Cincinnati TRACON
08:36PM 39.4183 -84.4294 50° Northeast 104 120 3,400 900 Climbing Indianapolis Center
08:37PM 39.4347 -84.4053 49° Northeast 112 129 3,900 780 Climbing Indianapolis Center
08:37PM 39.4425 -84.3894 58° Northeast 120 138 4,300 720 Climbing Indianapolis Center
08:39PM 39.4775 -84.3378 49° Northeast 118 136 5,400 540 Climbing Indianapolis Center
08:41PM 39.5300 -84.2658 47° Northeast 131 151 6,500 360 Climbing Indianapolis Center
08:43PM 39.5892 -84.1894 45° Northeast 141 162 7,000 120 Climbing Indianapolis Center
08:44PM 39.6197 -84.1497 45° Northeast 149 171 7,000  Level Indianapolis Center
08:45PM 39.6514 -84.1086 45° Northeast 156 180 7,000  Level Indianapolis Center
08:46PM 39.6800 -84.0661 49° Northeast 153 176 7,000  Level Indianapolis Center
08:47PM 39.7081 -84.0264 47° Northeast 153 176 7,000  Level Indianapolis Center
08:48PM 39.7383 -83.9869 45° Northeast 155 178 7,100  Climbing Indianapolis Center
08:49PM 39.7689 -83.9447 47° Northeast 158 182 7,000 -60 Descending Indianapolis Center
08:50PM 39.8017 -83.9056 43° Northeast 158 182 7,000  Level Indianapolis Center
08:51PM 39.8333 -83.8686 42° Northeast 157 181 7,000  Level Indianapolis Center
08:53PM 39.8631 -83.7978 43° Northeast  Level FlightAware Approximate
08:53PM 39.8936 -83.7922 43° Northeast 156 180 7,000  Level Indianapolis Center
08:53PM 39.9031 -83.7803 44° Northeast 157 181 7,000  Level Indianapolis Center
08:54PM 39.9239 -83.7525 46° Northeast 154 177 7,000  Level Indianapolis Center
08:54PM 39.9333 -83.7408 43° Northeast 154 177 7,000 60 Level Indianapolis Center
08:55PM 39.9539 -83.7153 44° Northeast 154 177 7,100  Climbing Indianapolis Center
08:55PM 39.9644 -83.7017 45° Northeast 153 176 7,000  Descending Indianapolis Center
08:56PM 39.9961 -83.6636 43° Northeast 153 176 7,100  Climbing Indianapolis Center
08:57PM 40.0139 -83.6386 47° Northeast 150 173 7,000 -120 Descending Indianapolis Center
08:57PM 40.0264 -83.6242 42° Northeast 152 175 7,000  Level Indianapolis Center
08:58PM 40.0464 -83.5961 47° Northeast 151 174 7,000  Level Indianapolis Center
08:58PM 40.0564 -83.5839 43° Northeast 152 175 7,000  Level Indianapolis Center
08:59PM 40.0717 -83.5639 45° Northeast 153 176 7,000  Level Indianapolis Center
08:59PM 40.0878 -83.5453 41° Northeast 152 175 7,000  Level Indianapolis Center
09:00PM 40.1131 -83.5144 43° Northeast 153 176 7,000  Level Indianapolis Center
09:01PM 40.1361 -83.4847 45° Northeast 155 178 7,000  Level Indianapolis Center
09:01PM 40.1511 -83.4667 43° Northeast 155 178 7,000  Level Indianapolis Center
09:02PM 40.1822 -83.4261 45° Northeast 156 180 7,000  Level Indianapolis Center
09:03PM 40.2078 -83.3922 45° Northeast 154 177 7,000  Level Indianapolis Center
09:04PM 40.2378 -83.3522 45° Northeast 155 178 7,000  Level Indianapolis Center
09:05PM 40.2758 -83.3056 43° Northeast 155 178 7,000  Level Indianapolis Center
09:06PM 40.3069 -83.2642 45° Northeast 157 181 7,100  Climbing Indianapolis Center
09:07PM 40.3319 -83.2325 44° Northeast 157 181 7,100  Level Indianapolis Center
09:08PM 40.3386 -83.2233 46° Northeast 158 182 7,100  Level Indianapolis Center
09:09PM 40.3703 -83.1817 45° Northeast 159 183 7,100  Level Indianapolis Center
09:11PM 40.4400 -83.0936 44° Northeast 159 183 7,100  Level Indianapolis Center
09:12PM 40.4714 -83.0511 46° Northeast 160 184 7,100  Level Indianapolis Center
09:14PM 40.5332 -82.9785 42° Northeast  Level FlightAware Approximate
09:15PM 40.5686 -82.9231 42° Northeast 163 188 7,100  Level Indianapolis Center
09:16PM 40.6006 -82.8794 46° Northeast 164 189 7,100  Level Indianapolis Center
09:17PM 40.6331 -82.8364 45° Northeast 164 189 7,100  Level Indianapolis Center
09:18PM 40.6642 -82.7911 48° Northeast 165 190 7,100  Level Indianapolis Center
09:19PM 40.6967 -82.7472 46° Northeast 165 190 7,100  Level Indianapolis Center
09:20PM 40.7289 -82.7028 46° Northeast 166 191 7,100  Level Indianapolis Center
09:22PM 40.7931 -82.6292 41° Northeast 165 190 7,100  Level Cleveland Center
09:23PM 40.8269 -82.5944 38° Northeast 167 192 7,100  Level Cleveland Center
09:24PM 40.8672 -82.5544 37° Northeast 165 190 7,200  Climbing Cleveland Center
09:25PM 40.8992 -82.5169 42° Northeast 163 188 7,200  Level Cleveland Center
09:26PM 40.9333 -82.4767 42° Northeast 163 188 7,200  Level Cleveland Center
09:26PM 40.9631 -82.4364 46° Northeast 164 189 7,200 -60 Level Cleveland Center
09:28PM 40.9908 -82.3931 50° Northeast 163 188 7,100 -60 Descending Cleveland Center
09:29PM 41.0247 -82.3528 42° Northeast 162 186 7,100  Level Cleveland Center
09:30PM 41.0589 -82.3125 42° Northeast 164 189 7,100  Level Cleveland Center
09:31PM 41.0908 -82.2664 47° Northeast 163 188 7,200  Climbing Cleveland Center
09:32PM 41.1228 -82.2178 49° Northeast 168 193 7,100  Descending Cleveland Center
09:33PM 41.1567 -82.1744 44° Northeast 170 196 7,200  Climbing Cleveland Center
09:34PM 41.1928 -82.1311 42° Northeast 170 196 7,100  Descending Cleveland Center
09:36PM 41.2564 -82.0414 47° Northeast 168 193 7,200  Climbing Cleveland Center
09:37PM 41.2906 -81.9953 45° Northeast 168 193 7,100 -360 Descending Cleveland Center
09:39PM 41.3581 -81.9108 43° Northeast 186 214 6,200 -420 Descending Cleveland Center
09:40PM 41.3942 -81.8647 44° Northeast 187 215 6,000 -900 Descending Cleveland Center
09:41PM 41.4281 -81.8183 46° Northeast 164 189 4,500 -1,680 Descending Cleveland Center
09:42PM 41.4639 -81.7803 39° Northeast 160 184 2,700 -1,500 Descending Cleveland Center
09:43PM 41.4914 -81.7419 46° Northeast 139 160 1,500 -1,200 Descending Cleveland Center
09:45PM 41.5175 -81.6833 48° Northeast  Level Estimated
09:52PM 41.5175 -81.6833 48° Northeast  Level Estimated